^^
Grace C. Lehan Memorial Weather Station Historical Data
Daily Summary for August 13, 2022 Units:  English    Metric   Both
Daily Weekly Monthly Yearly
  High: Low: Average:
Temperature: 77.6 °F 60 °F 68.1 °F
Dew Point: 57.5 °F 50.7 °F 53.7 °F
Humidity: 78.3% 45.2% 61%
Wind Speed: 4.5mph 0mph 0.6mph
Wind Gust: 14mph - -
Wind- - SW
Pressure: 30.07 in 30.01 in -
Precipitation: 0.00 in    
 
 
Tabular Data for August 13, 2022
Time Temperature Dew Point Pressure Wind Wind Speed Wind Gust Humidity Rainfall Rate (Hourly) solar
00:00 66.7 °F 50.7 °F 30.01 in Calm   2 mph 56.3% 0.00 in 0 W/m2
00:09 66.6 °F 50.9 °F 30.02 in Calm     57% 0.00 in 0 W/m2
00:14 66.5 °F 51 °F 30.02 in NNW 0.4 mph 4 mph 57.4% 0.00 in 0 W/m2
00:19 66.4 °F 51.2 °F 30.02 in Calm   4 mph 58% 0.00 in 0 W/m2
00:24 66.3 °F 51.1 °F 30.02 in Calm   4 mph 58% 0.00 in 0 W/m2
00:29 66.2 °F 51.2 °F 30.02 in NNW 0.2 mph 4 mph 58.5% 0.00 in 0 W/m2
00:34 66.1 °F 51.4 °F 30.03 in NNW 0.5 mph 4 mph 59% 0.00 in 0 W/m2
00:39 66 °F 51.3 °F 30.03 in NNW 0.2 mph 3 mph 59% 0.00 in 0 W/m2
00:44 65.9 °F 51.2 °F 30.03 in NNW 0.2 mph 3 mph 59% 0.00 in 0 W/m2
00:49 65.9 °F 51.5 °F 30.03 in NNW 0.1 mph 3 mph 59.8% 0.00 in 0 W/m2
00:54 65.8 °F 51.6 °F 30.03 in Calm   3 mph 60% 0.00 in 0 W/m2
00:59 65.8 °F 51.6 °F 30.03 in Calm   3 mph 60% 0.00 in 0 W/m2
01:04 65.8 °F 51.5 °F 30.03 in Calm   3 mph 60% 0.00 in 0 W/m2
01:09 65.6 °F 51.8 °F 30.03 in Calm   1 mph 61% 0.00 in 0 W/m2
01:14 65.5 °F 51.7 °F 30.03 in Calm   1 mph 61% 0.00 in 0 W/m2
01:19 65.4 °F 51.8 °F 30.03 in NNW 0.2 mph 4 mph 61.5% 0.00 in 0 W/m2
01:24 65.3 °F 51.9 °F 30.03 in Calm   4 mph 62% 0.00 in 0 W/m2
01:29 65.2 °F 51.9 °F 30.04 in Calm   4 mph 62% 0.00 in 0 W/m2
01:34 65.1 °F 51.7 °F 30.04 in NNW 0.4 mph 4 mph 62% 0.00 in 0 W/m2
01:39 65 °F 52 °F 30.03 in Calm   4 mph 62.8% 0.00 in 0 W/m2
01:44 64.9 °F 52 °F 30.03 in Calm   4 mph 63% 0.00 in 0 W/m2
01:49 64.8 °F 51.9 °F 30.03 in NW 0.4 mph 5 mph 63% 0.00 in 0 W/m2
01:54 64.6 °F 52.2 °F 30.03 in Calm   5 mph 63.9% 0.00 in 0 W/m2
01:59 64.5 °F 52.1 °F 30.03 in NW 0.4 mph 5 mph 64.1% 0.00 in 0 W/m2
02:04 64.4 °F 52 °F 30.03 in NW 0.4 mph 6 mph 64.3% 0.00 in 0 W/m2
02:09 64.3 °F 52.3 °F 30.03 in Calm   6 mph 65% 0.00 in 0 W/m2
02:14 64.1 °F 52.1 °F 30.03 in Calm   6 mph 65% 0.00 in 0 W/m2
02:19 64 °F 52 °F 30.03 in Calm   6 mph 65% 0.00 in 0 W/m2
02:24 64 °F 52.3 °F 30.03 in Calm   6 mph 65.8% 0.00 in 0 W/m2
02:29 63.9 °F 52.3 °F 30.03 in Calm   6 mph 66% 0.00 in 0 W/m2
02:34 63.8 °F 52.3 °F 30.02 in NNW 0.1 mph 6 mph 66.3% 0.00 in 0 W/m2
02:39 63.6 °F 52.4 °F 30.02 in Calm   3 mph 66.7% 0.00 in 0 W/m2
02:44 63.6 °F 52.4 °F 30.02 in Calm   3 mph 67% 0.00 in 0 W/m2
02:49 63.5 °F 52.3 °F 30.02 in Calm   3 mph 67% 0.00 in 0 W/m2
02:54 63.4 °F 52.5 °F 30.02 in Calm   3 mph 67.6% 0.00 in 0 W/m2
02:59 63.3 °F 52.6 °F 30.02 in Calm   3 mph 68% 0.00 in 0 W/m2
03:04 63.2 °F 52.5 °F 30.03 in Calm   3 mph 68% 0.00 in 0 W/m2
03:09 63.1 °F 52.4 °F 30.03 in Calm     68% 0.00 in 0 W/m2
03:14 63 °F 52.4 °F 30.03 in Calm     68.2% 0.00 in 0 W/m2
03:19 63 °F 52.5 °F 30.03 in NNW 0.1 mph 3 mph 68.7% 0.00 in 0 W/m2
03:24 62.9 °F 52.6 °F 30.03 in Calm   3 mph 69% 0.00 in 0 W/m2
03:29 62.8 °F 52.5 °F 30.03 in Calm   3 mph 69% 0.00 in 0 W/m2
03:34 62.7 °F 52.7 °F 30.03 in Calm   3 mph 69.7% 0.00 in 0 W/m2
03:39 62.6 °F 52.7 °F 30.03 in Calm     70% 0.00 in 0 W/m2
03:44 62.5 °F 52.6 °F 30.03 in Calm     70% 0.00 in 0 W/m2
03:49 62.4 °F 52.5 °F 30.03 in Calm     70% 0.00 in 0 W/m2
03:54 62.3 °F 52.8 °F 30.03 in Calm     71% 0.00 in 0 W/m2
03:59 62.2 °F 52.7 °F 30.03 in Calm     71% 0.00 in 0 W/m2
04:00 62.2 °F 52.7 °F 30.03 in Calm     71% 0.00 in 0 W/m2
04:09 62 °F 52.9 °F 30.04 in Calm     72% 0.00 in 0 W/m2
04:14 61.9 °F 52.8 °F 30.04 in Calm     72% 0.00 in 0 W/m2
04:19 61.8 °F 52.9 °F 30.04 in Calm     72.5% 0.00 in 0 W/m2
04:24 61.7 °F 52.9 °F 30.04 in Calm     73% 0.00 in 0 W/m2
04:29 61.6 °F 52.8 °F 30.04 in Calm     73% 0.00 in 0 W/m2
04:34 61.4 °F 52.8 °F 30.04 in Calm     73.3% 0.00 in 0 W/m2
04:39 61.3 °F 52.9 °F 30.04 in Calm     74% 0.00 in 0 W/m2
04:44 61.2 °F 52.9 °F 30.04 in Calm     74% 0.00 in 0 W/m2
04:49 61.1 °F 52.7 °F 30.05 in Calm     74% 0.00 in 0 W/m2
04:54 61 °F 52.9 °F 30.05 in Calm     74.7% 0.00 in 0 W/m2
04:59 60.9 °F 52.9 °F 30.05 in Calm     75% 0.00 in 0 W/m2
05:04 60.9 °F 52.9 °F 30.05 in Calm     75% 0.00 in 0 W/m2
05:09 60.8 °F 52.8 °F 30.05 in Calm     75% 0.00 in 0 W/m2
05:14 60.8 °F 52.8 °F 30.05 in Calm     75% 0.00 in 0 W/m2
05:19 60.8 °F 52.8 °F 30.05 in Calm     75% 0.00 in 0 W/m2
05:24 60.7 °F 52.7 °F 30.05 in Calm     75% 0.00 in 0 W/m2
05:29 60.7 °F 52.9 °F 30.05 in Calm     75.4% 0.00 in 0 W/m2
05:34 60.6 °F 53 °F 30.05 in Calm     76% 0.00 in 0 W/m2
05:39 60.5 °F 53 °F 30.05 in Calm     76% 0.00 in 0 W/m2
05:44 60.5 °F 52.9 °F 30.05 in Calm     76% 0.00 in 0 W/m2
05:49 60.4 °F 52.8 °F 30.05 in Calm   1 mph 76% 0.00 in 0 W/m2
05:54 60.4 °F 52.8 °F 30.05 in Calm   1 mph 76% 0.00 in 0 W/m2
05:59 60.3 °F 52.7 °F 30.05 in Calm   1 mph 76% 0.00 in 0 W/m2
06:04 60.3 °F 52.7 °F 30.05 in Calm   1 mph 76% 0.00 in 0 W/m2
06:09 60.2 °F 52.6 °F 30.05 in Calm     76% 0.00 in 0 W/m2
06:14 60.2 °F 52.6 °F 30.06 in Calm     76% 0.00 in 5 W/m2
06:19 60.1 °F 52.5 °F 30.06 in Calm     76% 0.00 in 5 W/m2
06:24 60.1 °F 52.5 °F 30.06 in NNW 0.1 mph 3 mph 76% 0.00 in 7 W/m2
06:29 60.1 °F 52.8 °F 30.06 in NNW 0.2 mph 3 mph 76.9% 0.00 in 9 W/m2
06:34 60 °F 52.8 °F 30.06 in Calm   3 mph 77% 0.00 in 12 W/m2
06:39 60 °F 52.8 °F 30.06 in Calm     77% 0.00 in 44 W/m2
06:44 60 °F 52.8 °F 30.06 in Calm     77% 0.00 in 79 W/m2
06:49 60.1 °F 53.3 °F 30.06 in Calm     78% 0.00 in 79 W/m2
06:54 60.4 °F 53.6 °F 30.06 in Calm     78.3% 0.00 in 162 W/m2
06:59 60.8 °F 53.7 °F 30.06 in Calm     77.6% 0.00 in 206 W/m2
07:04 61.5 °F 54.2 °F 30.06 in Calm     76.9% 0.00 in 248 W/m2
07:09 62.6 °F 54.8 °F 30.06 in Calm     75.6% 0.00 in 248 W/m2
07:14 63.9 °F 55 °F 30.07 in Calm     72.8% 0.00 in 274 W/m2
07:19 65.1 °F 55 °F 30.07 in Calm     69.8% 0.00 in 221 W/m2
07:24 66 °F 55.2 °F 30.07 in Calm     68.1% 0.00 in 239 W/m2
07:29 66.8 °F 55.4 °F 30.07 in NNW 0.1 mph 3 mph 66.8% 0.00 in 255 W/m2
07:34 67.6 °F 55.4 °F 30.07 in NNW 0.2 mph 3 mph 64.9% 0.00 in 272 W/m2
07:39 68 °F 55.3 °F 30.07 in North 0.1 mph 3 mph 63.9% 0.00 in 288 W/m2
07:44 68.1 °F 54.8 °F 30.07 in WNW 1.1 mph 8 mph 62.5% 0.00 in 306 W/m2
07:49 68.1 °F 55.2 °F 30.07 in North 1.1 mph 8 mph 63.3% 0.00 in 323 W/m2
07:54 68.2 °F 55.2 °F 30.07 in Calm   8 mph 63.2% 0.00 in 341 W/m2
07:59 68.4 °F 55.3 °F 30.07 in NNW 0.8 mph 9 mph 63% 0.00 in 362 W/m2
08:00 68.3 °F 55.2 °F 30.07 in Calm   9 mph 63% 0.00 in 362 W/m2
08:09 68.2 °F 54.9 °F 30.07 in ENE 1.4 mph 7 mph 62.6% 0.00 in 397 W/m2
08:14 68 °F 55 °F 30.07 in NW 1.1 mph 7 mph 63% 0.00 in 411 W/m2
08:19 68.1 °F 55.2 °F 30.07 in NNE 0.7 mph 7 mph 63.3% 0.00 in 427 W/m2
08:24 68.5 °F 55.6 °F 30.07 in ENE 0.2 mph 7 mph 63.5% 0.00 in 443 W/m2
08:29 68.9 °F 55.8 °F 30.07 in East 0.3 mph 7 mph 62.8% 0.00 in 455 W/m2
08:34 69.3 °F 56 °F 30.07 in East 0.5 mph 7 mph 62.5% 0.00 in 475 W/m2
08:39 69.8 °F 56.6 °F 30.07 in NE 1.4 mph 10 mph 62.9% 0.00 in 489 W/m2
08:44 70.3 °F 56.4 °F 30.07 in NNW 1.5 mph 10 mph 61.3% 0.00 in 510 W/m2
08:49 70.8 °F 56.9 °F 30.07 in North 0.4 mph 10 mph 61.4% 0.00 in 520 W/m2
08:54 71.1 °F 56.8 °F 30.07 in ENE 1.2 mph 10 mph 60.6% 0.00 in 533 W/m2
08:59 70.9 °F 57.1 °F 30.07 in NNE 0.1 mph 10 mph 61.5% 0.00 in 547 W/m2
09:04 71.4 °F 57.2 °F 30.07 in North 0.8 mph 10 mph 60.9% 0.00 in 563 W/m2
09:09 71.9 °F 57.2 °F 30.07 in NNW 0.9 mph 7 mph 59.7% 0.00 in 577 W/m2
09:14 72.4 °F 57.2 °F 30.07 in NE 1.3 mph 9 mph 58.8% 0.00 in 592 W/m2
09:19 72.8 °F 56.9 °F 30.07 in East 1 mph 9 mph 57.4% 0.00 in 606 W/m2
09:24 72.8 °F 57 °F 30.07 in ENE 1 mph 9 mph 57.6% 0.00 in 619 W/m2
09:30 72.6 °F 57.5 °F 30.07 in ENE 1 mph 11 mph 59% 0.00 in 592 W/m2
10:00 72.2 °F 56.1 °F 30.07 in ENE 2 mph 12 mph 57% 0.00 in 676 W/m2
11:00 77 °F 56.4 °F 30.06 in WNW 2 mph 13 mph 49% 0.00 in 820 W/m2
11:30 75.9 °F 54.8 °F 30.06 in NW 2 mph 11 mph 48% 0.00 in 596 W/m2
12:04 75.4 °F 53.4 °F 30.06 in Calm   2 mph 46.3% 0.00 in 323 W/m2
12:09 75.2 °F 54.2 °F 30.06 in NW 0.7 mph 4 mph 48% 0.00 in 455 W/m2
12:14 75.2 °F 54.2 °F 30.06 in NW 2.3 mph 11 mph 48% 0.00 in 476 W/m2
12:19 75.2 °F 53.5 °F 30.06 in WNW 1.4 mph 11 mph 46.8% 0.00 in 591 W/m2
12:24 75.2 °F 53.4 °F 30.06 in NW 4.5 mph 14 mph 46.7% 0.00 in 503 W/m2
12:29 75.2 °F 53.7 °F 30.06 in NW 0.9 mph 14 mph 47.2% 0.00 in 1209 W/m2
12:34 75.7 °F 54.4 °F 30.06 in NW 2 mph 14 mph 47.7% 0.00 in 1209 W/m2
12:39 75.8 °F 54.9 °F 30.06 in ENE 2.2 mph 12 mph 48.3% 0.00 in 155 W/m2
12:44 75.3 °F 54.8 °F 30.06 in NE 0.8 mph 12 mph 48.9% 0.00 in 220 W/m2
12:49 74.8 °F 54.9 °F 30.06 in NW 3.5 mph 12 mph 49.9% 0.00 in 287 W/m2
12:54 74.4 °F 54.7 °F 30.06 in NW 2.8 mph 12 mph 50.2% 0.00 in 388 W/m2
12:59 74.2 °F 54.5 °F 30.06 in NW 1.7 mph 12 mph 50.2% 0.00 in 434 W/m2
13:04 74.3 °F 55 °F 30.05 in NW 0.7 mph 12 mph 51% 0.00 in 1095 W/m2
13:09 74.9 °F 54.9 °F 30.05 in NW 1.1 mph 7 mph 49.7% 0.00 in 1005 W/m2
13:14 75.5 °F 54.8 °F 30.05 in NW 1.3 mph 9 mph 48.5% 0.00 in 1055 W/m2
13:19 75.9 °F 54.6 °F 30.04 in WNW 1.5 mph 10 mph 47.7% 0.00 in 334 W/m2
13:24 76.2 °F 55.1 °F 30.04 in NW 1 mph 10 mph 48% 0.00 in 1195 W/m2
13:29 76.4 °F 54.8 °F 30.04 in NNE 0.6 mph 10 mph 47.2% 0.00 in 425 W/m2
13:34 76.4 °F 55 °F 30.04 in ENE 2.7 mph 10 mph 47.5% 0.00 in 489 W/m2
13:39 76.4 °F 55.2 °F 30.04 in NNW 1.5 mph 10 mph 47.8% 0.00 in 489 W/m2
13:44 76.5 °F 55.3 °F 30.04 in NNW 0.9 mph 10 mph 47.8% 0.00 in 548 W/m2
13:49 76.4 °F 55.5 °F 30.04 in NNW 1.2 mph 10 mph 48.3% 0.00 in 464 W/m2
13:54 76.3 °F 55.8 °F 30.04 in NNW 0.8 mph 10 mph 49% 0.00 in 1141 W/m2
13:59 76.5 °F 55.2 °F 30.04 in NW 2.4 mph 10 mph 47.7% 0.00 in 1141 W/m2
14:04 76.7 °F 55.5 °F 30.04 in NW 1.2 mph 10 mph 47.8% 0.00 in 1067 W/m2
14:09 77.4 °F 55.2 °F 30.04 in WNW 4 mph 12 mph 46.3% 0.00 in 1176 W/m2
14:14 77.5 °F 55 °F 30.04 in NW 2.9 mph 12 mph 45.8% 0.00 in 371 W/m2
14:19 77.5 °F 55.5 °F 30.04 in NW 1.6 mph 12 mph 46.6% 0.00 in 1194 W/m2
14:24 77.5 °F 54.7 °F 30.03 in ENE 2.3 mph 12 mph 45.2% 0.00 in 1116 W/m2
14:29 77.3 °F 54.4 °F 30.03 in NNW 1.8 mph 12 mph 45.2% 0.00 in 1116 W/m2
14:34 77.2 °F 54.9 °F 30.03 in NNW 1.6 mph 12 mph 46.2% 0.00 in 223 W/m2
14:39 76.9 °F 54.6 °F 30.03 in North 1.7 mph 9 mph 46% 0.00 in 207 W/m2
14:44 76.5 °F 54.6 °F 30.03 in NW 2 mph 9 mph 46.7% 0.00 in 229 W/m2
14:49 76.2 °F 54.6 °F 30.03 in NW 1.7 mph 9 mph 47.2% 0.00 in 257 W/m2
14:54 76 °F 54.7 °F 30.03 in WNW 1 mph 9 mph 47.6% 0.00 in 1004 W/m2
14:59 76.1 °F 54.4 °F 30.03 in NNW 1.1 mph 9 mph 46.9% 0.00 in 1025 W/m2
15:04 76.5 °F 54.7 °F 30.02 in NNE 2.8 mph 10 mph 46.8% 0.00 in 997 W/m2
15:09 77.1 °F 55.3 °F 30.02 in NNW 1.1 mph 10 mph 46.9% 0.00 in 441 W/m2
15:14 77.6 °F 54.8 °F 30.02 in NE 1.8 mph 10 mph 45.4% 0.00 in 441 W/m2
15:19 77.4 °F 54.8 °F 30.02 in ENE 0.1 mph 10 mph 45.7% 0.00 in 320 W/m2
15:24 77.3 °F 55 °F 30.02 in NNW 1.8 mph 10 mph 46.1% 0.00 in 380 W/m2
15:29 77.2 °F 54.6 °F 30.02 in North 0.7 mph 10 mph 45.7% 0.00 in 457 W/m2
15:34 77.1 °F 54.4 °F 30.02 in WNW 2.1 mph 10 mph 45.5% 0.00 in 524 W/m2
15:39 77.3 °F 54.8 °F 30.02 in ENE 0.3 mph 6 mph 45.8% 0.00 in 403 W/m2
15:44 77.5 °F 54.9 °F 30.02 in NNE 1 mph 6 mph 45.7% 0.00 in 262 W/m2
15:49 77.4 °F 54.7 °F 30.01 in ENE 1.2 mph 6 mph 45.5% 0.00 in 244 W/m2
15:54 77.1 °F 54.9 °F 30.01 in ENE 0.8 mph 6 mph 46.2% 0.00 in 250 W/m2
15:59 76.8 °F 54.1 °F 30.01 in ENE 0.6 mph 6 mph 45.4% 0.00 in 239 W/m2
Hartford County Weather
Compliments of Weather Underground - 4 mb